createdAt,value
2022-08-02T00:09:04.927Z,99369.70
2022-08-02T00:19:11.044Z,99368.24
2022-08-02T00:29:16.797Z,99374.92
2022-08-02T00:39:35.260Z,99377.52
2022-08-02T00:49:41.823Z,99380.66
2022-08-02T00:59:47.659Z,99387.77
2022-08-02T01:09:53.841Z,99396.86
2022-08-02T01:20:07.933Z,99409.48
2022-08-02T01:30:16.166Z,99414.98
2022-08-02T01:40:30.386Z,99414.61
2022-08-02T01:50:38.593Z,99405.14
2022-08-02T02:00:47.418Z,99400.98
2022-08-02T02:10:54.206Z,99396.88
2022-08-02T02:21:00.424Z,99388.93
2022-08-02T02:31:09.303Z,99399.66
2022-08-02T02:41:16.722Z,99394.36
2022-08-02T02:51:23.435Z,99385.45
2022-08-02T03:01:56.192Z,99391.02
2022-08-02T03:11:58.457Z,99397.38
2022-08-02T03:22:04.691Z,99401.91
2022-08-02T03:32:11.142Z,99395.38
2022-08-02T03:42:18.384Z,99398.84
2022-08-02T03:52:25.490Z,99408.38
2022-08-02T04:02:31.198Z,99416.85
2022-08-02T04:12:36.957Z,99425.52
2022-08-02T04:22:48.749Z,99429.20
2022-08-02T04:32:55.616Z,99436.83
2022-08-02T04:43:01.652Z,99453.19
2022-08-02T04:53:07.545Z,99469.70
2022-08-02T05:03:14.675Z,99480.46
2022-08-02T05:13:20.458Z,99488.38
2022-08-02T05:23:26.426Z,99490.58
2022-08-02T05:33:32.209Z,99504.84
2022-08-02T05:43:37.922Z,99511.58
2022-08-02T05:53:59.344Z,99526.92
2022-08-02T06:04:08.396Z,99541.82
2022-08-02T06:14:14.889Z,99545.70
2022-08-02T06:24:23.031Z,99553.98
2022-08-02T06:34:27.345Z,99563.71
2022-08-02T06:44:51.982Z,99578.90
2022-08-02T06:54:59.948Z,99590.70
2022-08-02T07:05:07.590Z,99590.60
2022-08-02T07:15:13.932Z,99597.84
2022-08-02T07:25:19.606Z,99604.26
2022-08-02T07:35:25.439Z,99605.09
2022-08-02T07:45:35.696Z,99619.41
2022-08-02T07:55:42.014Z,99626.34
2022-08-02T08:05:48.056Z,99631.66
2022-08-02T08:15:53.911Z,99638.36
2022-08-02T08:25:59.806Z,99640.21
2022-08-02T08:36:06.143Z,99649.33
2022-08-02T08:46:19.862Z,99659.80
2022-08-02T08:56:30.559Z,99674.60
2022-08-02T09:06:36.448Z,99687.64
2022-08-02T09:16:43.838Z,99698.63
2022-08-02T09:26:51.139Z,99712.18
2022-08-02T09:36:57.037Z,99716.10
2022-08-02T09:47:14.649Z,99720.34
2022-08-02T09:57:29.404Z,99723.56
2022-08-02T10:07:35.749Z,99732.09
2022-08-02T10:17:42.727Z,99727.41
2022-08-02T10:28:04.820Z,99723.05
2022-08-02T10:38:13.975Z,99717.30
2022-08-02T10:48:19.975Z,99716.71
2022-08-02T10:58:30.159Z,99710.48
2022-08-02T11:08:36.857Z,99707.63
2022-08-02T11:19:07.132Z,99710.08
2022-08-02T11:29:15.581Z,99701.42
2022-08-02T11:39:23.653Z,99701.92
2022-08-02T11:49:31.138Z,99704.88
2022-08-02T11:59:40.403Z,99706.75
2022-08-02T12:09:46.382Z,99713.20
2022-08-02T12:19:52.194Z,99714.39
2022-08-02T12:30:03.602Z,99710.23
2022-08-02T12:40:25.487Z,99710.95
2022-08-02T12:50:34.861Z,99708.58
2022-08-02T13:00:41.389Z,99701.81
2022-08-02T13:10:47.362Z,99699.29
2022-08-02T13:20:53.580Z,99697.48
2022-08-02T13:31:14.898Z,99689.92
2022-08-02T13:41:24.973Z,99688.27
2022-08-02T13:51:30.800Z,99680.60
2022-08-02T14:01:43.893Z,99672.94
2022-08-02T14:11:50.400Z,99668.67
2022-08-02T14:22:10.844Z,99662.48
2022-08-02T14:32:17.426Z,99661.90
2022-08-02T14:42:23.389Z,99656.61
2022-08-02T14:52:29.246Z,99653.00
2022-08-02T15:02:34.900Z,99660.02
2022-08-02T15:12:40.597Z,99657.21
2022-08-02T15:22:46.424Z,99653.02
2022-08-02T15:32:55.573Z,99650.29
2022-08-02T15:43:01.503Z,99646.50
2022-08-02T15:53:07.153Z,99644.70
2022-08-02T16:03:12.972Z,99651.77
2022-08-02T16:13:41.050Z,99652.58
2022-08-02T16:24:02.699Z,99654.13
2022-08-02T16:34:09.397Z,99655.84
2022-08-02T16:44:17.122Z,99658.67
2022-08-02T16:54:23.489Z,99655.80
2022-08-02T17:04:32.395Z,99657.74
2022-08-02T17:14:41.901Z,99657.95
2022-08-02T17:25:00.612Z,99659.98
2022-08-02T17:35:10.084Z,99663.05
2022-08-02T17:45:17.085Z,99666.04
2022-08-02T17:55:33.313Z,99671.13
2022-08-02T18:05:53.395Z,99677.47
2022-08-02T18:16:01.257Z,99680.68
2022-08-02T18:26:08.120Z,99685.66
2022-08-02T18:36:25.085Z,99690.81
2022-08-02T18:46:31.395Z,99697.45
2022-08-02T18:56:39.166Z,99707.14
2022-08-02T19:06:45.531Z,99714.15
2022-08-02T19:16:58.127Z,99717.14
2022-08-02T19:27:14.205Z,99725.60
2022-08-02T19:37:20.779Z,99722.98
2022-08-02T19:47:26.510Z,99728.30
2022-08-02T19:57:44.227Z,99724.59
2022-08-02T20:07:56.319Z,99725.91
2022-08-02T20:18:02.489Z,99726.05
2022-08-02T20:28:08.516Z,99728.77
2022-08-02T20:38:14.555Z,99735.05
2022-08-02T20:48:20.477Z,99738.70
2022-08-02T20:58:35.488Z,99735.45
2022-08-02T21:08:42.180Z,99733.27
2022-08-02T21:18:55.911Z,99731.94
2022-08-02T21:29:05.977Z,99731.46
2022-08-02T21:39:12.279Z,99737.71
2022-08-02T21:49:18.189Z,99735.70
2022-08-02T21:59:26.715Z,99737.23
2022-08-02T22:09:44.277Z,99740.13
2022-08-02T22:19:51.109Z,99742.36
2022-08-02T22:29:59.950Z,99744.04
2022-08-02T22:40:09.896Z,99746.08
2022-08-02T22:50:15.737Z,99743.71
2022-08-02T23:00:22.130Z,99745.95
2022-08-02T23:10:27.961Z,99749.44
2022-08-02T23:20:34.237Z,99747.49
2022-08-02T23:30:40.273Z,99750.27
2022-08-02T23:40:46.368Z,99743.66
2022-08-02T23:50:52.145Z,99742.13
